createdAt,value
2019-02-23T00:00:34.296Z,37.57
2019-02-23T00:03:01.587Z,33.27
2019-02-23T00:05:28.889Z,30.63
2019-02-23T00:07:56.203Z,32.70
2019-02-23T00:10:23.482Z,31.93
2019-02-23T00:12:50.767Z,33.97
2019-02-23T00:15:18.103Z,36.00
2019-02-23T00:17:45.391Z,34.23
2019-02-23T00:20:12.703Z,32.67
2019-02-23T00:22:40.051Z,31.83
2019-02-23T00:25:07.422Z,36.43
2019-02-23T00:27:34.739Z,35.50
2019-02-23T00:30:02.127Z,30.93
2019-02-23T00:32:29.420Z,33.87
2019-02-23T00:34:56.716Z,33.50
2019-02-23T00:37:24.028Z,39.17
2019-02-23T00:40:10.795Z,35.03
2019-02-23T00:42:38.174Z,36.90
2019-02-23T00:45:05.924Z,34.47
2019-02-23T00:47:33.279Z,38.03
2019-02-23T00:50:00.596Z,33.70
2019-02-23T00:52:27.908Z,37.47
2019-02-23T00:54:55.275Z,38.67
2019-02-23T00:57:22.551Z,35.57
2019-02-23T00:59:49.871Z,38.87
2019-02-23T01:02:17.169Z,36.70
2019-02-23T01:04:44.450Z,40.17
2019-02-23T01:07:11.727Z,37.67
2019-02-23T01:09:39.041Z,42.50
2019-02-23T01:12:06.363Z,38.43
2019-02-23T01:14:33.671Z,36.27
2019-02-23T01:17:00.987Z,38.83
2019-02-23T01:19:28.319Z,37.70
2019-02-23T01:21:55.716Z,37.00
2019-02-23T01:24:23.006Z,36.83
2019-02-23T01:26:50.307Z,39.10
2019-02-23T01:29:17.586Z,34.77
2019-02-23T01:31:44.863Z,37.90
2019-02-23T01:34:12.170Z,34.97
2019-02-23T01:36:39.462Z,39.47
2019-02-23T01:39:06.770Z,39.53
2019-02-23T01:41:34.119Z,38.30
2019-02-23T01:44:15.304Z,40.37
2019-02-23T01:46:42.931Z,39.13
2019-02-23T01:49:10.224Z,40.53
2019-02-23T01:51:37.516Z,38.63
2019-02-23T01:54:04.834Z,41.07
2019-02-23T01:56:32.121Z,38.97
2019-02-23T01:58:59.388Z,39.93
2019-02-23T02:01:26.699Z,42.80
2019-02-23T02:03:54.000Z,41.27
2019-02-23T02:06:21.360Z,35.83
2019-02-23T02:08:48.774Z,38.67
2019-02-23T02:11:16.585Z,36.90
2019-02-23T02:13:43.881Z,41.20
2019-02-23T02:16:11.283Z,39.63
2019-02-23T02:18:38.564Z,38.17
2019-02-23T02:21:06.177Z,36.90
2019-02-23T02:23:33.480Z,39.70
2019-02-23T02:26:20.232Z,38.63
2019-02-23T02:28:47.575Z,40.27
2019-02-23T02:31:14.860Z,38.27
2019-02-23T02:34:05.983Z,38.87
2019-02-23T02:36:33.348Z,37.73
2019-02-23T02:39:00.638Z,37.70
2019-02-23T02:41:27.987Z,39.10
2019-02-23T02:43:55.286Z,34.23
2019-02-23T02:46:22.625Z,43.77
2019-02-23T02:48:49.976Z,35.70
2019-02-23T02:51:17.279Z,39.47
2019-02-23T02:53:44.691Z,40.87
2019-02-23T02:56:12.008Z,38.53
2019-02-23T02:58:39.295Z,37.23
2019-02-23T03:01:06.589Z,39.17
2019-02-23T03:03:53.374Z,38.20
2019-02-23T03:06:20.778Z,37.37
2019-02-23T03:08:48.127Z,43.80
2019-02-23T03:11:15.512Z,39.17
2019-02-23T03:13:42.817Z,40.00
2019-02-23T03:16:10.141Z,39.10
2019-02-23T03:18:37.726Z,41.50
2019-02-23T03:21:05.031Z,41.53
2019-02-23T03:23:32.427Z,39.07
2019-02-23T03:25:59.750Z,40.50
2019-02-23T03:28:27.031Z,39.40
2019-02-23T03:30:54.308Z,43.73
2019-02-23T03:33:21.659Z,40.27
2019-02-23T03:35:49.054Z,41.10
2019-02-23T03:38:16.359Z,37.60
2019-02-23T03:40:43.701Z,39.37
2019-02-23T03:43:12.699Z,40.67
2019-02-23T03:45:39.975Z,37.93
2019-02-23T03:48:07.294Z,38.70
2019-02-23T03:50:34.595Z,37.43
2019-02-23T03:53:01.924Z,38.97
2019-02-23T03:55:29.363Z,37.17
2019-02-23T03:57:56.687Z,39.33
2019-02-23T04:00:24.082Z,36.27
2019-02-23T04:02:51.399Z,35.60
2019-02-23T04:05:38.177Z,36.53
2019-02-23T04:08:07.152Z,39.87
2019-02-23T04:10:34.524Z,36.13
2019-02-23T04:13:01.904Z,36.50
2019-02-23T04:15:48.703Z,35.47
2019-02-23T04:18:16.157Z,34.10
2019-02-23T04:20:43.481Z,38.93
2019-02-23T04:23:10.828Z,35.87
2019-02-23T04:25:57.741Z,35.90
2019-02-23T04:28:25.087Z,38.40
2019-02-23T04:30:52.367Z,38.33
2019-02-23T04:33:19.667Z,36.77
2019-02-23T04:36:06.478Z,36.20
2019-02-23T04:38:33.796Z,40.97
2019-02-23T04:41:14.436Z,36.53
2019-02-23T04:43:44.116Z,40.33
2019-02-23T04:46:10.928Z,38.27
2019-02-23T04:48:57.702Z,36.33
2019-02-23T04:51:24.999Z,35.60
2019-02-23T04:54:11.767Z,39.53
2019-02-23T04:56:39.103Z,34.10
2019-02-23T04:59:06.508Z,36.10
2019-02-23T05:01:33.833Z,37.33
2019-02-23T05:04:01.145Z,34.33
2019-02-23T05:06:28.429Z,32.57
2019-02-23T05:08:55.720Z,37.27
2019-02-23T05:11:23.003Z,38.57
2019-02-23T05:13:50.288Z,35.17
2019-02-23T05:16:17.887Z,35.53
2019-02-23T05:18:45.174Z,35.87
2019-02-23T05:21:12.449Z,37.27
2019-02-23T05:23:59.242Z,36.17
2019-02-23T05:26:26.625Z,36.80
2019-02-23T05:28:54.009Z,32.43
2019-02-23T05:31:22.217Z,36.33
2019-02-23T05:33:49.839Z,34.03
2019-02-23T05:36:17.158Z,37.97
2019-02-23T05:38:44.466Z,39.20
2019-02-23T05:41:11.776Z,35.97
2019-02-23T05:43:39.200Z,34.03
2019-02-23T05:46:06.601Z,36.73
2019-02-23T05:48:53.623Z,35.60
2019-02-23T05:51:20.990Z,36.93
2019-02-23T05:53:48.415Z,35.93
2019-02-23T05:56:16.425Z,35.30
2019-02-23T05:58:43.944Z,35.53
2019-02-23T06:01:11.643Z,40.20
2019-02-23T06:03:38.999Z,37.37
2019-02-23T06:06:25.804Z,32.83
2019-02-23T06:08:53.222Z,33.27
2019-02-23T06:11:20.779Z,32.53
2019-02-23T06:13:48.135Z,34.70
2019-02-23T06:16:15.530Z,38.87
2019-02-23T06:18:42.827Z,36.10
2019-02-23T06:21:10.130Z,34.30
2019-02-23T06:23:37.511Z,34.13
2019-02-23T06:26:04.909Z,34.43
2019-02-23T06:28:32.194Z,36.83
2019-02-23T06:30:59.572Z,35.10
2019-02-23T06:33:26.892Z,35.23
2019-02-23T06:35:54.193Z,32.33
2019-02-23T06:38:21.585Z,33.23
2019-02-23T06:40:48.964Z,32.37
2019-02-23T06:43:16.253Z,31.83
2019-02-23T06:45:43.578Z,31.33
2019-02-23T06:48:10.891Z,33.27
2019-02-23T06:50:57.669Z,35.13
2019-02-23T06:53:24.986Z,34.73
2019-02-23T06:55:52.306Z,34.53
2019-02-23T06:58:19.683Z,33.03
2019-02-23T07:00:46.977Z,35.70
2019-02-23T07:03:14.321Z,34.43
2019-02-23T07:05:41.648Z,32.23
2019-02-23T07:08:08.996Z,31.53
2019-02-23T07:10:36.323Z,33.30
2019-02-23T07:13:23.099Z,33.40
2019-02-23T07:15:50.423Z,37.03
2019-02-23T07:18:17.728Z,33.03
2019-02-23T07:20:45.056Z,32.47
2019-02-23T07:23:13.036Z,32.43
2019-02-23T07:25:40.407Z,29.63
2019-02-23T07:28:07.788Z,32.47
2019-02-23T07:30:35.230Z,33.40
2019-02-23T07:33:02.587Z,32.67
2019-02-23T07:35:30.007Z,27.63
2019-02-23T07:37:57.340Z,29.63
2019-02-23T07:40:24.659Z,32.60
2019-02-23T07:42:51.975Z,31.43
2019-02-23T07:45:19.286Z,31.93
2019-02-23T07:47:46.582Z,32.37
2019-02-23T07:50:14.140Z,29.87
2019-02-23T07:52:41.503Z,33.00
2019-02-23T07:55:08.948Z,29.80
2019-02-23T07:57:36.387Z,28.73
2019-02-23T08:00:03.736Z,30.13
2019-02-23T08:02:31.248Z,32.37
2019-02-23T08:04:58.603Z,30.00
2019-02-23T08:07:25.952Z,31.80
2019-02-23T08:09:53.307Z,26.80
2019-02-23T08:12:20.747Z,29.23
2019-02-23T08:14:48.135Z,29.97
2019-02-23T08:17:15.579Z,27.37
2019-02-23T08:19:43.056Z,30.97
2019-02-23T08:22:11.313Z,25.77
2019-02-23T08:24:59.274Z,28.57
2019-02-23T08:27:26.738Z,29.53
2019-02-23T08:29:54.092Z,27.30
2019-02-23T08:32:21.519Z,26.50
2019-02-23T08:34:48.880Z,30.47
2019-02-23T08:37:16.240Z,28.60
2019-02-23T08:39:43.754Z,31.93
2019-02-23T08:42:11.188Z,30.10
2019-02-23T08:44:58.101Z,28.83
2019-02-23T08:47:26.982Z,28.17
2019-02-23T08:49:54.387Z,26.67
2019-02-23T08:52:48.543Z,28.07
2019-02-23T08:55:10.544Z,26.93
2019-02-23T08:57:37.900Z,28.47
2019-02-23T09:00:07.475Z,26.90
2019-02-23T09:02:34.828Z,29.33
2019-02-23T09:05:02.169Z,31.50
2019-02-23T09:07:29.595Z,28.60
2019-02-23T09:09:56.920Z,29.70
2019-02-23T09:12:24.985Z,27.10
2019-02-23T09:15:11.875Z,26.00
2019-02-23T09:17:39.340Z,27.70
2019-02-23T09:20:06.946Z,27.87
2019-02-23T09:22:34.420Z,27.60
2019-02-23T09:25:01.765Z,26.53
2019-02-23T09:27:49.010Z,23.87
2019-02-23T09:30:16.553Z,27.83
2019-02-23T09:32:43.990Z,25.47
2019-02-23T09:35:11.369Z,27.67
2019-02-23T09:37:38.847Z,24.63
2019-02-23T09:40:07.423Z,26.47
2019-02-23T09:42:34.786Z,28.73
2019-02-23T09:45:02.137Z,26.93
2019-02-23T09:47:29.563Z,24.07
2019-02-23T09:49:56.984Z,26.97
2019-02-23T09:52:45.859Z,25.97
2019-02-23T09:55:13.368Z,27.47
2019-02-23T09:57:40.812Z,26.93
2019-02-23T10:00:08.683Z,26.60
2019-02-23T10:02:58.752Z,27.03
2019-02-23T10:05:46.803Z,23.83
2019-02-23T10:08:14.155Z,26.77
2019-02-23T10:10:41.664Z,24.67
2019-02-23T10:13:09.046Z,25.00
2019-02-23T10:15:55.932Z,29.73
2019-02-23T10:18:23.244Z,23.10
2019-02-23T10:20:50.555Z,24.90
2019-02-23T10:23:21.924Z,22.37
2019-02-23T10:25:47.206Z,25.73
2019-02-23T10:28:14.643Z,23.73
2019-02-23T10:31:01.723Z,26.23
2019-02-23T10:33:30.047Z,24.43
2019-02-23T10:35:57.753Z,22.07
2019-02-23T10:38:44.638Z,27.27
2019-02-23T10:41:12.023Z,20.80
2019-02-23T10:43:39.362Z,23.43
2019-02-23T10:46:06.863Z,21.57
2019-02-23T10:48:34.254Z,21.53
2019-02-23T10:51:01.612Z,24.17
2019-02-23T10:53:33.096Z,22.10
2019-02-23T10:56:01.739Z,22.13
2019-02-23T10:58:48.513Z,21.93
2019-02-23T11:01:15.831Z,19.80
2019-02-23T11:03:43.151Z,19.77
2019-02-23T11:06:10.804Z,22.67
2019-02-23T11:08:38.534Z,21.73
2019-02-23T11:11:06.403Z,22.27
2019-02-23T11:13:35.247Z,23.43
2019-02-23T11:16:03.540Z,22.30
2019-02-23T11:18:30.900Z,20.37
2019-02-23T11:20:58.276Z,22.20
2019-02-23T11:23:25.702Z,19.83
2019-02-23T11:25:53.036Z,21.57
2019-02-23T11:28:22.679Z,19.57
2019-02-23T11:30:50.054Z,18.17
2019-02-23T11:33:18.542Z,20.23
2019-02-23T11:35:46.060Z,20.97
2019-02-23T11:38:32.893Z,21.80
2019-02-23T11:41:00.368Z,18.53
2019-02-23T11:43:27.798Z,22.17
2019-02-23T11:45:55.158Z,19.30
2019-02-23T11:48:22.637Z,20.47
2019-02-23T11:50:50.337Z,21.03
2019-02-23T11:53:17.732Z,20.73
2019-02-23T11:55:45.175Z,20.93
2019-02-23T11:58:12.543Z,20.07
2019-02-23T12:00:40.620Z,20.20
2019-02-23T12:03:08.044Z,18.17
2019-02-23T12:05:35.433Z,20.33
2019-02-23T12:08:02.903Z,18.70
2019-02-23T12:10:30.875Z,20.30
2019-02-23T12:12:58.795Z,20.93
2019-02-23T12:15:26.142Z,21.67
2019-02-23T12:17:53.509Z,19.57
2019-02-23T12:20:21.779Z,17.97
2019-02-23T12:22:52.381Z,18.47
2019-02-23T12:25:21.166Z,19.40
2019-02-23T12:27:49.241Z,17.57
2019-02-23T12:30:16.742Z,15.03
2019-02-23T12:32:46.599Z,17.33
2019-02-23T12:35:14.006Z,24.90
2019-02-23T12:37:41.375Z,16.37
2019-02-23T12:40:08.810Z,16.20
2019-02-23T12:42:36.356Z,16.23
2019-02-23T12:45:03.795Z,16.77
2019-02-23T12:47:31.285Z,17.73
2019-02-23T12:49:58.644Z,14.87
2019-02-23T12:52:26.126Z,16.17
2019-02-23T12:54:53.564Z,16.60
2019-02-23T12:57:20.930Z,19.57
2019-02-23T12:59:48.654Z,16.07
2019-02-23T13:02:16.098Z,16.43
2019-02-23T13:04:43.896Z,15.50
2019-02-23T13:07:11.327Z,17.77
2019-02-23T13:09:45.501Z,18.30
2019-02-23T13:12:51.868Z,17.20
2019-02-23T13:15:39.721Z,14.63
2019-02-23T13:18:51.126Z,15.67
2019-02-23T13:22:21.293Z,14.70
2019-02-23T13:25:35.337Z,17.33
2019-02-23T13:28:34.436Z,19.27
2019-02-23T13:31:43.129Z,16.30
2019-02-23T13:35:04.390Z,20.23
2019-02-23T13:38:10.513Z,15.30
2019-02-23T13:41:02.245Z,16.27
2019-02-23T13:43:58.490Z,16.30
2019-02-23T13:47:00.803Z,15.93
2019-02-23T13:49:42.429Z,15.33
2019-02-23T13:52:42.924Z,15.63
2019-02-23T13:56:07.108Z,14.90
2019-02-23T13:58:48.618Z,14.97
2019-02-23T14:02:00.283Z,14.37
2019-02-23T14:04:51.295Z,14.57
2019-02-23T14:07:57.959Z,15.87
2019-02-23T14:10:40.489Z,15.37
2019-02-23T14:13:46.745Z,15.30
2019-02-23T14:16:48.162Z,15.57
2019-02-23T14:19:43.946Z,14.93
2019-02-23T14:22:21.522Z,15.23
2019-02-23T14:25:21.743Z,14.20
2019-02-23T14:28:19.800Z,16.63
2019-02-23T14:31:28.134Z,15.10
2019-02-23T14:34:35.920Z,14.77
2019-02-23T14:37:50.107Z,14.67
2019-02-23T14:40:57.872Z,13.87
2019-02-23T14:43:56.033Z,14.07
2019-02-23T14:47:07.392Z,15.13
2019-02-23T14:50:05.319Z,13.93
2019-02-23T14:52:59.477Z,16.43
2019-02-23T14:55:36.232Z,15.90
2019-02-23T14:58:48.415Z,16.30
2019-02-23T15:01:54.729Z,14.53
2019-02-23T15:05:08.415Z,17.03
2019-02-23T15:08:15.426Z,16.93
2019-02-23T15:11:10.292Z,17.57
2019-02-23T15:14:30.577Z,16.40
2019-02-23T15:17:49.042Z,17.03
2019-02-23T15:24:46.510Z,18.23
2019-02-23T15:27:40.090Z,16.20
2019-02-23T15:30:25.775Z,16.83
2019-02-23T15:33:42.747Z,17.33
2019-02-23T15:36:20.083Z,15.97
2019-02-23T15:39:33.637Z,15.83
2019-02-23T15:42:33.455Z,14.57
2019-02-23T15:45:26.458Z,16.83
2019-02-23T15:48:47.726Z,15.63
2019-02-23T15:51:15.251Z,17.63
2019-02-23T15:53:42.592Z,18.47
2019-02-23T15:56:10.028Z,16.97
2019-02-23T15:58:37.339Z,18.90
2019-02-23T16:01:04.689Z,18.27
2019-02-23T16:03:32.051Z,18.50
2019-02-23T16:05:59.539Z,20.07
2019-02-23T16:08:26.857Z,18.97
2019-02-23T16:10:54.212Z,18.50
2019-02-23T16:13:21.534Z,20.57
2019-02-23T16:15:49.275Z,18.73
2019-02-23T16:18:16.632Z,19.03
2019-02-23T16:20:43.924Z,20.40
2019-02-23T16:23:11.275Z,18.60
2019-02-23T16:25:38.730Z,19.23
2019-02-23T16:28:06.096Z,19.90
2019-02-23T16:30:33.477Z,19.20
2019-02-23T16:33:00.846Z,20.70
2019-02-23T16:35:28.265Z,21.57
2019-02-23T16:37:55.671Z,22.90
2019-02-23T16:40:23.017Z,19.33
2019-02-23T16:42:50.336Z,21.67
2019-02-23T16:45:17.634Z,21.37
2019-02-23T16:47:44.959Z,20.30
2019-02-23T16:50:12.427Z,20.33
2019-02-23T16:52:39.770Z,18.57
2019-02-23T16:55:07.140Z,20.53
2019-02-23T16:57:34.501Z,21.10
2019-02-23T17:00:01.827Z,18.90
2019-02-23T17:02:29.148Z,18.70
2019-02-23T17:04:56.525Z,18.87
2019-02-23T17:07:23.850Z,18.80
2019-02-23T17:09:51.183Z,18.13
2019-02-23T17:12:18.611Z,19.27
2019-02-23T17:14:46.007Z,20.47
2019-02-23T17:17:13.360Z,19.70
2019-02-23T17:19:43.681Z,22.27
2019-02-23T17:22:11.143Z,22.00
2019-02-23T17:24:38.558Z,21.37
2019-02-23T17:27:05.918Z,20.37
2019-02-23T17:29:33.303Z,22.43
2019-02-23T17:32:00.625Z,20.50
2019-02-23T17:34:29.314Z,21.03
2019-02-23T17:36:56.607Z,23.07
2019-02-23T17:39:24.032Z,21.07
2019-02-23T17:41:51.449Z,20.67
2019-02-23T17:44:19.016Z,23.23
2019-02-23T17:46:48.516Z,20.53
2019-02-23T17:49:15.683Z,24.03
2019-02-23T17:51:43.070Z,20.90
2019-02-23T17:54:10.398Z,19.37
2019-02-23T17:56:37.852Z,22.87
2019-02-23T17:59:05.232Z,20.07
2019-02-23T18:01:32.558Z,18.83
2019-02-23T18:03:59.872Z,21.57
2019-02-23T18:06:27.175Z,22.23
2019-02-23T18:08:54.562Z,20.87
2019-02-23T18:11:21.871Z,21.97
2019-02-23T18:13:49.871Z,20.20
2019-02-23T18:16:17.245Z,19.80
2019-02-23T18:18:44.683Z,21.03
2019-02-23T18:21:12.108Z,21.40
2019-02-23T18:23:39.483Z,20.27
2019-02-23T18:26:07.275Z,19.77
2019-02-23T18:28:34.586Z,20.57
2019-02-23T18:31:01.932Z,19.17
2019-02-23T18:33:29.285Z,19.20
2019-02-23T18:35:56.686Z,19.03
2019-02-23T18:38:24.063Z,19.70
2019-02-23T18:40:51.405Z,18.70
2019-02-23T18:43:18.771Z,19.60
2019-02-23T18:45:47.647Z,18.60
2019-02-23T18:48:15.223Z,20.13
2019-02-23T18:50:42.559Z,20.00
2019-02-23T18:53:09.924Z,20.50
2019-02-23T18:55:41.146Z,20.00
2019-02-23T18:58:06.598Z,17.93
2019-02-23T19:00:34.035Z,18.97
2019-02-23T19:03:01.403Z,19.47
2019-02-23T19:05:28.753Z,20.80
2019-02-23T19:07:56.146Z,22.30
2019-02-23T19:10:23.507Z,22.13
2019-02-23T19:12:50.838Z,21.63
2019-02-23T19:15:18.282Z,20.80
2019-02-23T19:17:45.743Z,20.20
2019-02-23T19:20:13.101Z,20.33
2019-02-23T19:22:40.485Z,20.03
2019-02-23T19:25:09.477Z,20.97
2019-02-23T19:27:37.384Z,21.23
2019-02-23T19:30:06.187Z,22.17
2019-02-23T19:32:33.543Z,20.57
2019-02-23T19:35:00.954Z,21.63
2019-02-23T19:37:28.367Z,20.97
2019-02-23T19:39:55.727Z,23.23
2019-02-23T19:42:23.079Z,21.80
2019-02-23T19:44:51.236Z,22.33
2019-02-23T19:47:22.156Z,21.50
2019-02-23T19:49:51.822Z,22.53
2019-02-23T19:52:21.950Z,21.77
2019-02-23T19:54:49.278Z,22.60
2019-02-23T19:57:16.634Z,23.07
2019-02-23T19:59:43.993Z,20.03
2019-02-23T20:02:11.371Z,21.23
2019-02-23T20:04:38.743Z,20.63
2019-02-23T20:07:06.130Z,22.93
2019-02-23T20:09:33.547Z,18.83
2019-02-23T20:12:00.975Z,18.63
2019-02-23T20:14:28.295Z,22.93
2019-02-23T20:16:55.612Z,19.67
2019-02-23T20:19:22.974Z,21.90
2019-02-23T20:21:50.286Z,21.43
2019-02-23T20:24:17.635Z,22.20
2019-02-23T20:26:45.086Z,21.90
2019-02-23T20:29:12.415Z,19.80
2019-02-23T20:31:39.899Z,21.37
2019-02-23T20:34:07.428Z,20.57
2019-02-23T20:36:34.903Z,21.27
2019-02-23T20:39:03.260Z,20.93
2019-02-23T20:41:30.616Z,21.60
2019-02-23T20:43:57.959Z,23.40
2019-02-23T20:46:25.291Z,22.03
2019-02-23T20:48:53.047Z,19.53
2019-02-23T20:51:20.389Z,24.17
2019-02-23T20:53:47.870Z,24.03
2019-02-23T20:56:15.356Z,21.60
2019-02-23T20:58:42.647Z,24.07
2019-02-23T21:01:09.963Z,20.43
2019-02-23T21:03:37.341Z,21.73
2019-02-23T21:06:04.690Z,21.33
2019-02-23T21:08:32.095Z,20.73
2019-02-23T21:11:18.580Z,20.50
2019-02-23T21:13:45.954Z,21.20
2019-02-23T21:16:13.262Z,21.57
2019-02-23T21:18:40.638Z,22.03
2019-02-23T21:21:07.954Z,21.10
2019-02-23T21:23:35.264Z,17.93
2019-02-23T21:26:02.630Z,23.33
2019-02-23T21:28:49.478Z,21.67
2019-02-23T21:31:36.292Z,19.07
2019-02-23T21:34:03.632Z,20.27
2019-02-23T21:36:50.484Z,20.97
2019-02-23T21:39:19.823Z,20.97
2019-02-23T21:41:47.160Z,23.23
2019-02-23T21:44:14.497Z,22.97
2019-02-23T21:46:41.814Z,20.37
2019-02-23T21:49:09.164Z,20.90
2019-02-23T21:51:36.506Z,22.10
2019-02-23T21:54:23.331Z,21.60
2019-02-23T21:57:10.571Z,21.73
2019-02-23T21:59:37.924Z,24.20
2019-02-23T22:02:05.285Z,24.30
2019-02-23T22:04:32.732Z,21.30
2019-02-23T22:07:00.134Z,22.27
2019-02-23T22:09:27.468Z,23.60
2019-02-23T22:11:54.889Z,19.60
2019-02-23T22:14:22.217Z,22.13
2019-02-23T22:16:49.579Z,22.10
2019-02-23T22:19:17.076Z,20.80
2019-02-23T22:21:44.524Z,25.40
2019-02-23T22:24:11.935Z,24.10
2019-02-23T22:26:39.280Z,19.20
2019-02-23T22:29:06.695Z,21.07
2019-02-23T22:31:34.040Z,20.43
2019-02-23T22:34:01.498Z,20.50
2019-02-23T22:36:28.815Z,22.67
2019-02-23T22:38:56.141Z,22.47
2019-02-23T22:41:23.588Z,22.07
2019-02-23T22:43:50.894Z,20.47
2019-02-23T22:46:25.623Z,21.77
2019-02-23T22:48:52.991Z,20.57
2019-02-23T22:51:20.294Z,20.13
2019-02-23T22:53:47.731Z,19.30
2019-02-23T22:56:15.055Z,19.93
2019-02-23T22:58:42.425Z,18.70
2019-02-23T23:01:10.117Z,21.20
2019-02-23T23:03:37.558Z,20.87
2019-02-23T23:06:04.882Z,19.87
2019-02-23T23:08:32.344Z,20.30
2019-02-23T23:11:19.166Z,21.97
2019-02-23T23:13:59.493Z,22.87
2019-02-23T23:16:26.827Z,20.03
2019-02-23T23:18:54.163Z,20.27
2019-02-23T23:21:21.528Z,19.60
2019-02-23T23:23:48.860Z,19.43
2019-02-23T23:26:16.314Z,19.87
2019-02-23T23:28:43.675Z,21.47
2019-02-23T23:31:10.970Z,21.77
2019-02-23T23:33:38.304Z,20.47
2019-02-23T23:36:05.638Z,20.03
2019-02-23T23:38:32.955Z,21.63
2019-02-23T23:41:19.738Z,20.33
2019-02-23T23:43:47.073Z,18.60
2019-02-23T23:46:34.167Z,18.83
2019-02-23T23:51:46.575Z,18.87
2019-02-23T23:54:13.899Z,21.50
2019-02-23T23:56:41.263Z,18.27
2019-02-23T23:59:08.651Z,18.00
